Time;durP1;ratioP1;P1;durP2;ratioP2;P2;SDS_P1;SDS_P2;PMS_P1;PMS_P2;Temp;Humidity;BMP_temperature;BMP_pressure;BME280_temperature;BME280_humidity;BME280_pressure;Samples;Min_cycle;Max_cycle;Signal;HPM_P1;HPM_P2
2022/04/20 00:01:28;;;;;;;2.10;1.65;;;;;;;;;;5015994;28;20377;-68
2022/04/20 00:03:54;;;;;;;2.22;1.85;;;;;;;;;;5015723;28;20513;-67
2022/04/20 00:06:20;;;;;;;1.92;1.65;;;;;;;;;;5015727;28;20053;-68
2022/04/20 00:08:46;;;;;;;1.60;1.50;;;;;;;;;;4998173;28;20551;-68
2022/04/20 00:11:12;;;;;;;2.55;1.73;;;;;;;;;;5015991;28;20045;-67
2022/04/20 00:13:38;;;;;;;2.90;1.70;;;;;;;;;;5015801;28;20038;-67
2022/04/20 00:16:04;;;;;;;2.65;1.85;;;;;;;;;;5015562;28;20069;-67
2022/04/20 00:18:30;;;;;;;2.30;1.65;;;;;;;;;;5014271;28;20046;-67
2022/04/20 00:20:56;;;;;;;2.72;1.50;;;;;;;;;;5015615;28;20124;-67
2022/04/20 00:23:22;;;;;;;1.90;1.70;;;;;;;;;;5015485;28;20041;-67
2022/04/20 00:25:48;;;;;;;2.15;1.77;;;;;;;;;;5015376;28;20034;-67
2022/04/20 00:28:14;;;;;;;3.17;1.80;;;;;;;;;;5015534;28;20136;-68
2022/04/20 00:30:40;;;;;;;1.70;1.50;;;;;;;;;;4998010;28;20092;-68
2022/04/20 00:33:06;;;;;;;2.15;1.80;;;;;;;;;;5015106;28;20038;-67
2022/04/20 00:35:32;;;;;;;2.15;1.95;;;;;;;;;;5015485;28;20046;-68
2022/04/20 00:37:58;;;;;;;2.20;1.60;;;;;;;;;;5015491;28;20045;-67
2022/04/20 00:40:25;;;;;;;2.05;1.55;;;;;;;;;;5015074;28;20033;-68
2022/04/20 00:42:51;;;;;;;2.17;1.60;;;;;;;;;;5015514;28;20120;-68
2022/04/20 00:45:17;;;;;;;2.53;1.70;;;;;;;;;;5015592;28;20073;-67
2022/04/20 00:47:43;;;;;;;2.38;1.80;;;;;;;;;;5014537;28;20081;-67
2022/04/20 00:50:10;;;;;;;1.70;1.58;;;;;;;;;;5014997;28;20565;-67
2022/04/20 00:52:36;;;;;;;1.85;1.65;;;;;;;;;;5014903;28;20417;-68
2022/04/20 00:55:03;;;;;;;2.03;1.80;;;;;;;;;;5014654;28;20053;-68
2022/04/20 00:57:29;;;;;;;2.13;1.52;;;;;;;;;;5014959;28;20048;-67
2022/04/20 00:59:56;;;;;;;2.35;1.80;;;;;;;;;;5015274;28;20081;-68
2022/04/20 01:02:22;;;;;;;1.60;1.50;;;;;;;;;;5015046;28;20053;-67
2022/04/20 01:04:49;;;;;;;1.70;1.60;;;;;;;;;;5014892;28;20042;-67
2022/04/20 01:07:15;;;;;;;1.70;1.60;;;;;;;;;;5014626;28;20052;-67
2022/04/20 01:09:42;;;;;;;1.88;1.65;;;;;;;;;;5014448;28;20465;-68
2022/04/20 01:12:10;;;;;;;2.03;1.63;;;;;;;;;;5014176;28;20397;-68
2022/04/20 01:14:36;;;;;;;1.98;1.60;;;;;;;;;;5015075;28;20045;-67
2022/04/20 01:17:05;;;;;;;2.13;1.70;;;;;;;;;;5014431;28;20058;-67
2022/04/20 01:19:35;;;;;;;1.58;1.48;;;;;;;;;;5014375;28;20045;-68
2022/04/20 01:22:02;;;;;;;2.35;1.75;;;;;;;;;;5014677;28;20042;-68
2022/04/20 01:24:28;;;;;;;2.22;1.70;;;;;;;;;;5014403;28;20038;-68
2022/04/20 01:26:54;;;;;;;2.13;1.70;;;;;;;;;;5013274;28;20042;-68
2022/04/20 01:29:20;;;;;;;2.30;1.80;;;;;;;;;;5014378;28;20045;-68
2022/04/20 01:31:46;;;;;;;1.75;1.65;;;;;;;;;;5014125;28;20045;-68
2022/04/20 01:34:12;;;;;;;2.15;1.50;;;;;;;;;;5014335;28;20129;-68
2022/04/20 01:36:38;;;;;;;1.67;1.50;;;;;;;;;;5014204;28;20070;-68
2022/04/20 01:39:04;;;;;;;1.77;1.50;;;;;;;;;;5014125;28;20147;-67
2022/04/20 01:41:30;;;;;;;1.90;1.52;;;;;;;;;;5013757;28;20121;-67
2022/04/20 01:43:56;;;;;;;2.42;1.60;;;;;;;;;;5014137;28;20046;-68
2022/04/20 01:46:23;;;;;;;2.53;1.73;;;;;;;;;;5013984;28;20416;-67
2022/04/20 01:48:49;;;;;;;1.80;1.60;;;;;;;;;;5013652;28;20085;-67
2022/04/20 01:54:00;;;;;;;1.50;1.40;;;;;;;;;;5013862;28;20050;-67
2022/04/20 01:56:26;;;;;;;2.20;1.70;;;;;;;;;;5013910;28;20122;-67
2022/04/20 01:58:52;;;;;;;2.03;1.73;;;;;;;;;;5013292;28;20157;-68
2022/04/20 02:04:03;;;;;;;1.80;1.58;;;;;;;;;;5014071;28;20049;-68
2022/04/20 02:06:29;;;;;;;2.00;1.75;;;;;;;;;;5013194;28;20048;-68
2022/04/20 02:08:55;;;;;;;1.83;1.50;;;;;;;;;;5013200;28;20477;-67
2022/04/20 02:11:21;;;;;;;1.67;1.58;;;;;;;;;;4996149;28;20481;-67
2022/04/20 02:13:47;;;;;;;2.80;1.60;;;;;;;;;;5013386;28;20501;-68
2022/04/20 02:16:13;;;;;;;2.00;1.58;;;;;;;;;;5013919;28;20078;-67
2022/04/20 02:18:39;;;;;;;1.73;1.63;;;;;;;;;;5013242;28;20397;-67
2022/04/20 02:21:05;;;;;;;1.65;1.55;;;;;;;;;;5013779;28;20064;-67
2022/04/20 02:23:31;;;;;;;1.67;1.58;;;;;;;;;;5013217;28;20477;-67
2022/04/20 02:25:57;;;;;;;1.75;1.60;;;;;;;;;;5013178;28;20042;-67
2022/04/20 02:28:23;;;;;;;1.77;1.60;;;;;;;;;;4995723;28;20486;-67
2022/04/20 02:30:49;;;;;;;1.48;1.38;;;;;;;;;;5013310;28;20042;-68
2022/04/20 02:33:15;;;;;;;2.13;1.60;;;;;;;;;;5013277;28;20049;-67
2022/04/20 02:35:41;;;;;;;1.70;1.60;;;;;;;;;;5013298;28;20041;-67
2022/04/20 02:38:11;;;;;;;1.98;1.60;;;;;;;;;;5013143;28;20065;-67
2022/04/20 02:40:40;;;;;;;1.83;1.42;;;;;;;;;;5012629;28;20410;-68
2022/04/20 02:43:07;;;;;;;2.00;1.80;;;;;;;;;;5012805;28;20485;-68
2022/04/20 02:45:33;;;;;;;1.70;1.60;;;;;;;;;;5013433;28;20045;-67
2022/04/20 02:48:00;;;;;;;1.58;1.48;;;;;;;;;;5013032;28;20046;-68
2022/04/20 02:50:27;;;;;;;2.13;1.85;;;;;;;;;;5013199;28;20523;-67
2022/04/20 02:52:53;;;;;;;2.28;1.67;;;;;;;;;;5013366;28;20048;-67
2022/04/20 02:55:19;;;;;;;1.92;1.70;;;;;;;;;;5012599;28;20554;-67
2022/04/20 02:57:45;;;;;;;1.73;1.63;;;;;;;;;;5012775;28;20129;-68
2022/04/20 03:00:12;;;;;;;1.98;1.60;;;;;;;;;;5012076;28;20072;-68
2022/04/20 03:02:38;;;;;;;2.03;1.80;;;;;;;;;;4993672;28;20054;-68
2022/04/20 03:05:05;;;;;;;1.70;1.60;;;;;;;;;;4993406;28;20050;-68
2022/04/20 03:07:31;;;;;;;1.77;1.58;;;;;;;;;;4993354;28;20043;-67
2022/04/20 03:09:57;;;;;;;1.83;1.70;;;;;;;;;;5010723;28;20115;-68
2022/04/20 03:12:23;;;;;;;2.22;1.60;;;;;;;;;;5012614;28;20098;-68
2022/04/20 03:14:51;;;;;;;1.52;1.42;;;;;;;;;;5013040;28;20065;-67
2022/04/20 03:17:17;;;;;;;1.70;1.60;;;;;;;;;;5012529;28;20050;-67
2022/04/20 03:19:43;;;;;;;1.70;1.60;;;;;;;;;;5013028;28;20401;-68
2022/04/20 03:22:09;;;;;;;2.10;1.63;;;;;;;;;;5013115;28;20480;-67
2022/04/20 03:24:35;;;;;;;1.95;1.60;;;;;;;;;;5012289;28;20056;-67
2022/04/20 03:27:01;;;;;;;1.45;1.35;;;;;;;;;;5012361;28;20046;-67
2022/04/20 03:29:28;;;;;;;1.60;1.50;;;;;;;;;;5012952;28;20042;-67
2022/04/20 03:31:54;;;;;;;1.67;1.50;;;;;;;;;;5012973;28;20085;-67
2022/04/20 03:34:20;;;;;;;1.55;1.45;;;;;;;;;;5012852;28;20073;-67
2022/04/20 03:36:47;;;;;;;1.63;1.52;;;;;;;;;;5012758;28;20132;-67
2022/04/20 03:39:13;;;;;;;1.85;1.60;;;;;;;;;;5012244;28;20054;-67
2022/04/20 03:41:39;;;;;;;1.77;1.48;;;;;;;;;;5012581;28;20081;-67
2022/04/20 03:44:06;;;;;;;2.05;1.50;;;;;;;;;;5012722;28;20077;-68
2022/04/20 03:46:31;;;;;;;2.15;1.70;;;;;;;;;;5012343;28;20502;-67
2022/04/20 03:48:57;;;;;;;1.45;1.30;;;;;;;;;;5012734;28;20088;-67
2022/04/20 03:51:23;;;;;;;1.95;1.75;;;;;;;;;;5015008;28;20042;-67
2022/04/20 03:53:49;;;;;;;1.45;1.35;;;;;;;;;;5015672;28;20485;-68
2022/04/20 03:56:15;;;;;;;1.95;1.60;;;;;;;;;;5015878;28;20100;-67
2022/04/20 03:58:41;;;;;;;1.88;1.70;;;;;;;;;;5016087;28;20050;-67
2022/04/20 04:01:07;;;;;;;1.80;1.70;;;;;;;;;;5016117;28;20086;-68
2022/04/20 04:03:35;;;;;;;1.65;1.55;;;;;;;;;;5015919;28;20099;-67
2022/04/20 04:06:01;;;;;;;1.50;1.40;;;;;;;;;;5015739;28;20042;-67
2022/04/20 04:08:27;;;;;;;2.22;1.60;;;;;;;;;;5015539;28;20046;-67
2022/04/20 04:10:53;;;;;;;1.73;1.63;;;;;;;;;;5015692;28;20046;-67
2022/04/20 04:13:19;;;;;;;1.70;1.60;;;;;;;;;;4998388;28;20056;-67
2022/04/20 04:15:45;;;;;;;1.75;1.63;;;;;;;;;;5015600;28;20054;-68
2022/04/20 04:18:12;;;;;;;1.60;1.50;;;;;;;;;;5015740;28;20045;-67
2022/04/20 04:20:38;;;;;;;2.00;1.80;;;;;;;;;;5015562;28;20433;-67
2022/04/20 04:23:04;;;;;;;1.80;1.52;;;;;;;;;;5015400;28;20101;-67
2022/04/20 04:25:30;;;;;;;2.72;1.70;;;;;;;;;;5015693;28;20050;-67
2022/04/20 04:27:56;;;;;;;1.58;1.40;;;;;;;;;;5015350;28;20111;-67
2022/04/20 04:30:22;;;;;;;1.60;1.50;;;;;;;;;;5015586;28;20046;-67
2022/04/20 04:32:48;;;;;;;2.08;1.70;;;;;;;;;;5015486;28;20046;-67
2022/04/20 04:35:14;;;;;;;1.70;1.50;;;;;;;;;;5015497;28;20100;-67
2022/04/20 04:37:40;;;;;;;1.90;1.70;;;;;;;;;;5014925;28;20103;-67
2022/04/20 04:40:07;;;;;;;1.60;1.50;;;;;;;;;;5015065;28;20096;-67
2022/04/20 04:42:33;;;;;;;1.98;1.77;;;;;;;;;;5014991;28;20049;-67
2022/04/20 04:48:36;;;;;;;1.58;1.48;;;;;;;;;;5015097;28;20034;-67
2022/04/20 04:50:34;;;;;;;1.98;1.63;;;;;;;;;;4954250;29;20504;-68
2022/04/20 04:53:01;;;;;;;2.10;1.42;;;;;;;;;;4954391;29;20522;-67
2022/04/20 04:55:27;;;;;;;2.30;1.73;;;;;;;;;;4954835;29;20070;-67
2022/04/20 04:57:53;;;;;;;2.03;1.65;;;;;;;;;;4954309;29;20047;-67
2022/04/20 05:00:19;;;;;;;2.28;1.52;;;;;;;;;;4954814;29;20557;-67
2022/04/20 05:02:45;;;;;;;2.00;1.80;;;;;;;;;;4953384;28;20495;-67
2022/04/20 05:05:11;;;;;;;1.90;1.70;;;;;;;;;;4954365;29;20083;-68
2022/04/20 05:07:37;;;;;;;1.50;1.40;;;;;;;;;;4953694;29;20082;-67
2022/04/20 05:10:03;;;;;;;1.70;1.60;;;;;;;;;;4954250;29;20051;-67
2022/04/20 05:12:29;;;;;;;1.80;1.70;;;;;;;;;;4953742;29;20051;-67
2022/04/20 05:14:55;;;;;;;2.03;1.80;;;;;;;;;;4954265;29;20055;-68
2022/04/20 05:17:21;;;;;;;1.88;1.48;;;;;;;;;;4954134;29;20051;-68
2022/04/20 05:19:47;;;;;;;2.05;1.55;;;;;;;;;;4953001;29;20561;-68
2022/04/20 05:22:13;;;;;;;1.40;1.30;;;;;;;;;;4953706;29;20051;-68
2022/04/20 05:24:39;;;;;;;1.70;1.60;;;;;;;;;;4945997;29;20048;-67
2022/04/20 05:27:05;;;;;;;1.40;1.30;;;;;;;;;;4953866;28;20050;-68
2022/04/20 05:29:31;;;;;;;1.25;1.15;;;;;;;;;;5014772;28;20049;-67
2022/04/20 05:31:59;;;;;;;1.60;1.50;;;;;;;;;;5014130;28;20042;-67
2022/04/20 05:34:26;;;;;;;1.63;1.40;;;;;;;;;;5014130;28;20058;-67
2022/04/20 05:42:22;;;;;;;2.05;1.40;;;;;;;;;;5014057;28;20121;-68
2022/04/20 05:44:48;;;;;;;2.67;1.65;;;;;;;;;;5014052;28;20104;-68
2022/04/20 05:47:14;;;;;;;2.83;1.42;;;;;;;;;;5014211;28;20120;-68
2022/04/20 05:49:40;;;;;;;1.85;1.40;;;;;;;;;;5013837;28;20386;-68
2022/04/20 05:52:06;;;;;;;2.15;1.48;;;;;;;;;;5013701;28;20093;-68
2022/04/20 05:54:32;;;;;;;1.45;1.35;;;;;;;;;;5013545;28;20077;-68
2022/04/20 05:56:58;;;;;;;1.60;1.50;;;;;;;;;;5013986;28;20053;-69
2022/04/20 05:59:25;;;;;;;1.80;1.50;;;;;;;;;;5013926;28;20053;-68
2022/04/20 06:01:51;;;;;;;1.40;1.30;;;;;;;;;;5013761;28;20390;-68
2022/04/20 06:04:17;;;;;;;1.65;1.42;;;;;;;;;;5013814;28;20551;-69
2022/04/20 06:06:43;;;;;;;1.63;1.40;;;;;;;;;;5014245;28;20046;-68
2022/04/20 06:09:09;;;;;;;1.60;1.50;;;;;;;;;;5013426;28;20069;-69
2022/04/20 06:11:35;;;;;;;1.83;1.50;;;;;;;;;;5013573;28;20437;-68
2022/04/20 06:14:01;;;;;;;1.77;1.48;;;;;;;;;;5012496;28;20451;-68
2022/04/20 06:16:27;;;;;;;1.95;1.63;;;;;;;;;;4985085;28;20468;-68
2022/04/20 06:18:53;;;;;;;4.70;1.52;;;;;;;;;;5013572;28;20180;-68
2022/04/20 06:21:19;;;;;;;2.20;1.33;;;;;;;;;;5013381;28;20125;-68
2022/04/20 06:23:45;;;;;;;6.15;1.65;;;;;;;;;;5012997;28;20136;-68
2022/04/20 06:26:12;;;;;;;3.95;1.77;;;;;;;;;;5013192;28;20050;-68
2022/04/20 06:28:38;;;;;;;2.30;1.60;;;;;;;;;;5013283;28;20060;-68
2022/04/20 06:31:05;;;;;;;4.25;1.80;;;;;;;;;;5013664;28;20108;-68
2022/04/20 06:33:31;;;;;;;5.50;1.70;;;;;;;;;;5015627;28;20037;-68
2022/04/20 06:36:00;;;;;;;5.25;1.80;;;;;;;;;;5009709;28;20048;-68
2022/04/20 06:38:26;;;;;;;4.65;1.90;;;;;;;;;;5015050;28;20038;-68
2022/04/20 06:40:53;;;;;;;3.90;1.67;;;;;;;;;;5016588;28;20050;-68
2022/04/20 06:43:19;;;;;;;4.15;1.75;;;;;;;;;;5013138;28;20550;-68
2022/04/20 06:45:45;;;;;;;5.20;1.92;;;;;;;;;;4995060;28;20121;-68
2022/04/20 06:48:11;;;;;;;3.95;1.63;;;;;;;;;;5008946;28;20096;-68
2022/04/20 06:50:40;;;;;;;5.25;1.80;;;;;;;;;;5013148;28;20053;-67
2022/04/20 06:58:35;;;;;;;3.70;1.60;;;;;;;;;;5012801;28;20045;-69
2022/04/20 07:01:04;;;;;;;11.73;2.00;;;;;;;;;;5011832;28;20050;-70
2022/04/20 07:03:30;;;;;;;6.03;1.83;;;;;;;;;;4995134;28;20084;-70
2022/04/20 07:05:56;;;;;;;3.65;1.60;;;;;;;;;;5013118;28;20092;-69
2022/04/20 07:08:22;;;;;;;4.15;1.80;;;;;;;;;;5013023;28;20050;-69
2022/04/20 07:10:48;;;;;;;3.15;1.60;;;;;;;;;;5013017;28;20119;-69
2022/04/20 07:13:16;;;;;;;3.58;1.50;;;;;;;;;;5012905;28;20041;-70
2022/04/20 07:15:42;;;;;;;4.68;1.63;;;;;;;;;;5013489;28;20050;-69
2022/04/20 07:18:08;;;;;;;2.72;1.50;;;;;;;;;;5012801;28;20056;-70
2022/04/20 07:20:34;;;;;;;3.55;1.80;;;;;;;;;;5013146;28;20057;-70
2022/04/20 07:23:00;;;;;;;4.88;1.90;;;;;;;;;;5013104;28;20542;-70
2022/04/20 07:25:26;;;;;;;6.35;1.77;;;;;;;;;;5014189;28;20045;-69
2022/04/20 07:27:52;;;;;;;3.17;1.60;;;;;;;;;;5016652;28;20041;-69
2022/04/20 07:30:18;;;;;;;4.65;1.80;;;;;;;;;;5016584;28;20038;-69
2022/04/20 07:32:46;;;;;;;5.30;1.80;;;;;;;;;;5016657;28;20489;-69
2022/04/20 07:35:12;;;;;;;5.00;1.80;;;;;;;;;;5016494;28;20050;-69
2022/04/20 07:37:38;;;;;;;2.05;1.63;;;;;;;;;;5016954;28;20038;-69
2022/04/20 07:40:04;;;;;;;3.60;1.83;;;;;;;;;;5016587;28;20049;-69
2022/04/20 07:42:37;;;;;;;3.72;1.60;;;;;;;;;;5016407;28;20056;-68
2022/04/20 07:45:03;;;;;;;2.60;1.52;;;;;;;;;;5015837;28;20038;-68
2022/04/20 07:47:30;;;;;;;3.65;1.70;;;;;;;;;;5016375;28;20112;-67
2022/04/20 07:52:45;;;;;;;5.10;1.88;;;;;;;;;;5016172;28;20413;-67
2022/04/20 07:55:15;;;;;;;3.05;1.77;;;;;;;;;;5015995;28;20100;-69
2022/04/20 07:57:44;;;;;;;3.20;1.70;;;;;;;;;;5015810;28;20053;-69
2022/04/20 08:00:11;;;;;;;2.33;1.60;;;;;;;;;;5016074;28;20148;-69
2022/04/20 08:02:36;;;;;;;3.60;1.77;;;;;;;;;;5016372;28;20137;-69
2022/04/20 08:05:03;;;;;;;4.25;1.45;;;;;;;;;;4998323;28;20129;-69
2022/04/20 08:07:28;;;;;;;1.83;1.60;;;;;;;;;;5014633;28;20045;-69
2022/04/20 08:09:55;;;;;;;2.85;1.60;;;;;;;;;;5015900;28;20398;-69
2022/04/20 08:12:21;;;;;;;3.25;2.45;;;;;;;;;;5015723;28;20576;-69
2022/04/20 08:14:47;;;;;;;2.80;1.70;;;;;;;;;;5015975;28;20053;-69
2022/04/20 08:17:13;;;;;;;3.53;1.70;;;;;;;;;;5015722;28;20060;-69
2022/04/20 08:19:39;;;;;;;4.03;2.00;;;;;;;;;;5015770;28;20424;-69
2022/04/20 08:22:05;;;;;;;3.58;1.50;;;;;;;;;;5015758;28;20046;-69
2022/04/20 08:24:31;;;;;;;1.35;1.25;;;;;;;;;;5015306;28;20125;-69
2022/04/20 08:26:57;;;;;;;3.17;1.60;;;;;;;;;;5015532;28;20493;-69
2022/04/20 08:29:23;;;;;;;12.65;2.33;;;;;;;;;;5014705;28;20046;-70
2022/04/20 08:31:49;;;;;;;3.33;1.77;;;;;;;;;;5023360;28;20034;-69
2022/04/20 08:34:15;;;;;;;5.28;1.88;;;;;;;;;;5015298;28;20115;-69
2022/04/20 08:36:41;;;;;;;4.32;2.00;;;;;;;;;;5014536;28;20045;-69
2022/04/20 08:39:07;;;;;;;4.15;1.80;;;;;;;;;;5014897;28;20053;-69
2022/04/20 08:41:34;;;;;;;4.55;1.90;;;;;;;;;;5015078;28;20409;-69
2022/04/20 08:44:01;;;;;;;4.97;1.77;;;;;;;;;;5015430;28;20515;-69
2022/04/20 08:46:27;;;;;;;2.50;1.65;;;;;;;;;;5015170;28;20100;-69
2022/04/20 08:48:53;;;;;;;2.92;1.63;;;;;;;;;;4997250;28;20053;-69
2022/04/20 08:51:19;;;;;;;2.60;1.60;;;;;;;;;;5015560;28;20041;-68
2022/04/20 08:53:45;;;;;;;2.55;1.73;;;;;;;;;;5014925;28;20042;-69
2022/04/20 08:58:57;;;;;;;1.98;1.52;;;;;;;;;;5003126;28;20050;-68
2022/04/20 09:01:27;;;;;;;1.90;1.60;;;;;;;;;;5014859;28;20448;-69
2022/04/20 09:03:54;;;;;;;3.78;1.60;;;;;;;;;;5014838;28;20409;-68
2022/04/20 09:06:20;;;;;;;3.00;1.90;;;;;;;;;;5014577;28;20042;-69
2022/04/20 09:08:47;;;;;;;1.50;1.40;;;;;;;;;;5015018;28;20042;-69
2022/04/20 09:11:13;;;;;;;2.35;1.77;;;;;;;;;;5014802;28;20067;-69
2022/04/20 09:13:45;;;;;;;1.95;1.40;;;;;;;;;;5014608;28;20565;-69
2022/04/20 09:16:12;;;;;;;2.85;1.60;;;;;;;;;;4997082;28;20096;-69
2022/04/20 09:18:39;;;;;;;2.05;1.80;;;;;;;;;;5014978;28;20081;-69
2022/04/20 09:21:11;;;;;;;2.70;1.60;;;;;;;;;;5014738;28;20065;-69
2022/04/20 09:23:38;;;;;;;3.17;1.92;;;;;;;;;;5014597;28;20046;-69
2022/04/20 09:26:08;;;;;;;3.17;1.73;;;;;;;;;;5012995;28;20042;-69
2022/04/20 09:28:36;;;;;;;1.77;1.45;;;;;;;;;;5014405;28;20107;-69
2022/04/20 09:31:03;;;;;;;3.30;1.50;;;;;;;;;;5014689;28;20045;-68
2022/04/20 09:33:46;;;;;;;2.63;1.58;;;;;;;;;;5014518;28;20050;-69
2022/04/20 09:36:12;;;;;;;1.42;1.33;;;;;;;;;;5014629;28;20077;-69
2022/04/20 09:38:41;;;;;;;2.00;1.55;;;;;;;;;;5014570;28;20069;-69
2022/04/20 09:41:10;;;;;;;1.80;1.65;;;;;;;;;;5013872;28;20239;-69
2022/04/20 09:43:37;;;;;;;2.10;1.70;;;;;;;;;;5013661;28;20258;-69
2022/04/20 09:48:59;;;;;;;;;;;;;;;;;;5005225;28;20050;-69
2022/04/20 09:51:35;;;;;;;3.75;1.75;;;;;;;;;;5014341;28;19944;-69
2022/04/20 09:54:01;;;;;;;2.17;1.60;;;;;;;;;;5013944;28;20053;-69
2022/04/20 09:56:27;;;;;;;2.45;1.60;;;;;;;;;;4996254;28;20046;-69
2022/04/20 09:59:01;;;;;;;2.85;1.55;;;;;;;;;;4996050;28;20061;-69
2022/04/20 10:01:30;;;;;;;3.22;1.80;;;;;;;;;;5013901;28;20042;-69
2022/04/20 10:03:57;;;;;;;2.45;1.60;;;;;;;;;;5013914;28;20061;-69
2022/04/20 10:06:23;;;;;;;1.85;1.58;;;;;;;;;;5013686;28;20041;-69
2022/04/20 10:08:52;;;;;;;2.47;1.50;;;;;;;;;;5013688;28;20057;-69
2022/04/20 10:11:21;;;;;;;2.80;1.58;;;;;;;;;;5013749;28;20093;-68
2022/04/20 10:16:05;;;;;;;2.90;1.60;;;;;;;;;;4995913;28;20127;-69
2022/04/20 10:16:37;;;;;;;2.50;1.67;;;;;;;;;;5013458;28;20046;-68
2022/04/20 10:19:03;;;;;;;2.22;1.48;;;;;;;;;;5012146;28;20129;-69
2022/04/20 10:21:30;;;;;;;2.00;1.50;;;;;;;;;;5012166;28;20049;-69
2022/04/20 10:24:04;;;;;;;1.85;1.60;;;;;;;;;;5013645;28;20135;-69
2022/04/20 10:26:30;;;;;;;3.67;1.60;;;;;;;;;;5013410;28;20046;-69
2022/04/20 10:28:58;;;;;;;2.00;1.58;;;;;;;;;;5013715;28;20516;-69
2022/04/20 10:31:43;;;;;;;2.35;1.60;;;;;;;;;;5013137;28;20509;-69
2022/04/20 10:34:13;;;;;;;2.28;1.60;;;;;;;;;;5013423;28;20041;-69
2022/04/20 10:36:40;;;;;;;2.17;1.60;;;;;;;;;;4979688;28;20046;-69
2022/04/20 10:39:26;;;;;;;2.58;1.65;;;;;;;;;;5013349;28;20056;-69
2022/04/20 10:41:52;;;;;;;;;;;;;;;;;;5014027;28;20053;-69
2022/04/20 10:44:18;;;;;;;1.70;1.45;;;;;;;;;;5012261;28;19925;-68
2022/04/20 10:46:55;;;;;;;1.98;1.63;;;;;;;;;;5012804;28;20474;-67
2022/04/20 10:49:23;;;;;;;4.05;1.77;;;;;;;;;;4999713;28;20104;-69
2022/04/20 10:51:49;;;;;;;2.88;1.60;;;;;;;;;;5012773;28;20124;-69
2022/04/20 10:54:18;;;;;;;1.83;1.48;;;;;;;;;;5011992;28;20120;-69
2022/04/20 10:56:48;;;;;;;1.70;1.60;;;;;;;;;;5012728;28;20073;-68
2022/04/20 10:59:14;;;;;;;1.98;1.60;;;;;;;;;;5013984;28;20104;-68
2022/04/20 11:02:02;;;;;;;2.47;1.67;;;;;;;;;;5017309;28;20054;-68
2022/04/20 11:04:48;;;;;;;4.05;1.70;;;;;;;;;;5020903;28;20388;-69
2022/04/20 11:07:15;;;;;;;3.95;1.60;;;;;;;;;;5014405;28;20092;-69
2022/04/20 11:09:41;;;;;;;3.00;1.65;;;;;;;;;;4999764;28;20093;-69
2022/04/20 11:20:59;;;;;;;4.65;1.77;;;;;;;;;;5013374;28;20405;-69
2022/04/20 11:23:45;;;;;;;2.80;1.50;;;;;;;;;;5016773;28;20037;-69
2022/04/20 11:26:11;;;;;;;3.08;1.80;;;;;;;;;;5016453;28;20396;-69
2022/04/20 11:28:41;;;;;;;3.10;1.58;;;;;;;;;;5016743;28;20125;-69
2022/04/20 11:31:07;;;;;;;4.45;1.70;;;;;;;;;;5016744;28;20516;-69
2022/04/20 11:33:34;;;;;;;2.85;1.63;;;;;;;;;;5016291;28;20076;-69
2022/04/20 11:36:00;;;;;;;4.35;1.60;;;;;;;;;;5016294;28;20042;-69
2022/04/20 11:38:42;;;;;;;3.20;1.60;;;;;;;;;;5016457;28;20520;-69
2022/04/20 11:41:09;;;;;;;3.47;1.75;;;;;;;;;;5016600;28;20046;-69
2022/04/20 11:43:36;;;;;;;2.28;1.70;;;;;;;;;;5016193;28;20042;-69
2022/04/20 11:46:03;;;;;;;3.42;1.70;;;;;;;;;;5016066;28;20037;-69
2022/04/20 11:48:29;;;;;;;3.72;1.65;;;;;;;;;;5015844;28;20046;-69
2022/04/20 11:50:59;;;;;;;4.93;1.95;;;;;;;;;;5016111;28;20049;-69
2022/04/20 11:53:32;;;;;;;3.28;1.88;;;;;;;;;;5016349;28;20038;-69
2022/04/20 11:55:58;;;;;;;2.55;1.67;;;;;;;;;;5016064;28;20077;-69
2022/04/20 11:58:24;;;;;;;2.72;1.65;;;;;;;;;;5015735;28;20061;-69
2022/04/20 12:01:20;;;;;;;4.40;1.92;;;;;;;;;;5016082;28;20049;-69
2022/04/20 12:03:50;;;;;;;4.88;1.83;;;;;;;;;;5007401;28;20065;-69
2022/04/20 12:06:17;;;;;;;3.92;1.85;;;;;;;;;;5014598;28;20149;-69
2022/04/20 12:08:47;;;;;;;3.30;1.77;;;;;;;;;;5015807;28;20519;-69
2022/04/20 12:11:15;;;;;;;3.20;1.73;;;;;;;;;;5015241;28;20409;-69
2022/04/20 12:13:41;;;;;;;6.85;2.00;;;;;;;;;;5015975;28;20053;-69
2022/04/20 12:16:08;;;;;;;4.47;1.67;;;;;;;;;;5015642;28;20045;-69
2022/04/20 12:18:40;;;;;;;3.10;1.60;;;;;;;;;;5015449;28;20076;-69
2022/04/20 12:21:07;;;;;;;6.28;1.83;;;;;;;;;;5016053;28;20196;-69
2022/04/20 12:23:37;;;;;;;2.97;1.70;;;;;;;;;;5016015;28;20050;-69
2022/04/20 12:26:04;;;;;;;4.40;2.10;;;;;;;;;;5015630;28;20045;-69
2022/04/20 12:28:37;;;;;;;4.10;1.73;;;;;;;;;;4996118;28;20046;-69
2022/04/20 12:31:03;;;;;;;3.60;1.70;;;;;;;;;;5003024;28;20077;-69
2022/04/20 12:33:30;;;;;;;4.47;1.77;;;;;;;;;;5015579;28;20042;-69
2022/04/20 12:36:00;;;;;;;5.32;2.20;;;;;;;;;;5015515;28;20108;-69
2022/04/20 12:38:26;;;;;;;4.40;1.90;;;;;;;;;;5015028;28;20046;-69
2022/04/20 12:40:53;;;;;;;2.50;1.60;;;;;;;;;;5014986;28;20042;-69
2022/04/20 12:43:19;;;;;;;2.10;1.70;;;;;;;;;;5014945;28;20052;-70
2022/04/20 12:45:45;;;;;;;3.05;1.70;;;;;;;;;;5020469;28;20539;-69
2022/04/20 12:48:11;;;;;;;3.72;1.70;;;;;;;;;;5035031;28;20046;-69
2022/04/20 12:50:38;;;;;;;7.10;2.10;;;;;;;;;;5035038;28;20046;-69
2022/04/20 12:53:04;;;;;;;3.58;1.85;;;;;;;;;;5017641;28;20136;-69
2022/04/20 12:55:34;;;;;;;3.90;2.40;;;;;;;;;;5034911;28;20117;-69
2022/04/20 13:03:31;;;;;;;7.90;2.70;;;;;;;;;;5014842;28;20136;-70
2022/04/20 13:05:57;;;;;;;10.57;2.58;;;;;;;;;;5014415;28;20525;-69
2022/04/20 13:08:23;;;;;;;8.88;2.65;;;;;;;;;;5014851;28;20532;-70
2022/04/20 13:10:49;;;;;;;8.48;2.50;;;;;;;;;;5013234;28;20076;-68
2022/04/20 13:13:15;;;;;;;7.75;2.45;;;;;;;;;;5014938;28;20037;-69
2022/04/20 13:15:41;;;;;;;6.82;2.10;;;;;;;;;;5014158;28;20064;-68
2022/04/20 13:18:09;;;;;;;9.10;2.30;;;;;;;;;;5014657;28;20045;-68
2022/04/20 13:20:35;;;;;;;5.70;2.28;;;;;;;;;;5016989;28;20125;-68
2022/04/20 13:23:02;;;;;;;7.43;2.25;;;;;;;;;;5017011;28;20038;-69
2022/04/20 13:28:12;;;;;;;5.22;2.22;;;;;;;;;;5014337;28;20049;-69
2022/04/20 13:30:39;;;;;;;8.82;2.38;;;;;;;;;;5014330;28;20064;-69
2022/04/20 13:33:12;;;;;;;5.03;2.40;;;;;;;;;;5013887;28;20591;-69
2022/04/20 13:35:39;;;;;;;5.20;2.22;;;;;;;;;;5013219;28;20088;-69
2022/04/20 13:38:06;;;;;;;4.25;2.03;;;;;;;;;;4996443;28;20057;-69
2022/04/20 13:40:33;;;;;;;6.20;2.55;;;;;;;;;;5014317;28;20046;-69
2022/04/20 13:43:00;;;;;;;6.05;2.30;;;;;;;;;;4996803;28;20387;-68
2022/04/20 13:45:27;;;;;;;5.10;2.10;;;;;;;;;;5015027;28;20386;-69
2022/04/20 13:47:53;;;;;;;8.57;2.42;;;;;;;;;;5012868;28;20040;-69
2022/04/20 13:50:19;;;;;;;6.28;2.28;;;;;;;;;;5013903;28;20409;-69
2022/04/20 13:52:45;;;;;;;5.38;2.00;;;;;;;;;;5014110;28;20073;-69
2022/04/20 13:55:12;;;;;;;4.35;1.90;;;;;;;;;;5013756;28;20084;-69
2022/04/20 13:57:38;;;;;;;4.80;2.17;;;;;;;;;;5013467;28;20095;-69
2022/04/20 14:00:08;;;;;;;2.85;2.05;;;;;;;;;;5014235;28;20045;-69
2022/04/20 14:02:35;;;;;;;3.72;1.90;;;;;;;;;;5013955;28;20049;-69
2022/04/20 14:05:01;;;;;;;3.10;2.00;;;;;;;;;;5014076;28;20038;-69
2022/04/20 14:07:27;;;;;;;3.50;2.03;;;;;;;;;;5013490;28;20188;-68
2022/04/20 14:09:53;;;;;;;4.43;2.10;;;;;;;;;;5013977;28;20557;-68
2022/04/20 14:12:19;;;;;;;6.75;1.98;;;;;;;;;;5013810;28;20054;-69
2022/04/20 14:14:45;;;;;;;4.18;2.20;;;;;;;;;;5015846;28;20517;-68
2022/04/20 14:17:15;;;;;;;4.00;1.88;;;;;;;;;;5012819;28;20057;-68
2022/04/20 14:19:43;;;;;;;6.90;1.95;;;;;;;;;;5011781;28;20464;-69
2022/04/20 14:22:10;;;;;;;4.03;2.10;;;;;;;;;;5013707;28;20381;-69
2022/04/20 14:24:36;;;;;;;3.85;1.90;;;;;;;;;;4996282;28;20049;-69
2022/04/20 14:32:33;;;;;;;6.13;2.13;;;;;;;;;;5014052;28;20136;-69
2022/04/20 14:34:59;;;;;;;5.57;2.10;;;;;;;;;;5014125;28;20134;-69
2022/04/20 14:37:25;;;;;;;4.43;1.90;;;;;;;;;;5013398;28;20081;-68
2022/04/20 14:39:51;;;;;;;4.20;2.00;;;;;;;;;;5013778;28;20469;-67
2022/04/20 14:42:21;;;;;;;3.78;2.00;;;;;;;;;;5013000;28;20038;-68
2022/04/20 14:44:47;;;;;;;7.25;2.10;;;;;;;;;;5011673;28;20543;-67
2022/04/20 14:47:13;;;;;;;2.72;1.83;;;;;;;;;;5013125;28;20042;-68
2022/04/20 14:49:40;;;;;;;2.47;1.85;;;;;;;;;;5013494;28;20041;-68
2022/04/20 14:52:07;;;;;;;4.68;1.90;;;;;;;;;;5012213;28;20061;-68
2022/04/20 14:54:34;;;;;;;4.70;2.00;;;;;;;;;;5012017;28;20061;-67
2022/04/20 14:57:00;;;;;;;6.55;1.80;;;;;;;;;;5013725;28;20046;-68
2022/04/20 14:59:26;;;;;;;4.90;2.13;;;;;;;;;;5013725;28;20049;-67
2022/04/20 15:01:52;;;;;;;5.20;2.20;;;;;;;;;;5012323;28;20041;-67
2022/04/20 15:04:20;;;;;;;3.13;1.80;;;;;;;;;;5012818;28;20081;-67
2022/04/20 15:06:49;;;;;;;4.93;2.10;;;;;;;;;;5012354;28;20088;-68
2022/04/20 15:09:15;;;;;;;3.67;1.77;;;;;;;;;;5013515;28;20050;-67
2022/04/20 15:11:41;;;;;;;4.22;2.10;;;;;;;;;;5013582;28;20045;-67
2022/04/20 15:14:10;;;;;;;4.15;2.00;;;;;;;;;;5012296;28;20046;-67
2022/04/20 15:16:36;;;;;;;3.78;2.33;;;;;;;;;;4994140;28;20052;-68
2022/04/20 15:19:02;;;;;;;5.65;2.38;;;;;;;;;;5011540;28;20117;-67
2022/04/20 15:21:32;;;;;;;4.07;2.30;;;;;;;;;;5016837;28;20080;-68
2022/04/20 15:23:58;;;;;;;4.40;2.40;;;;;;;;;;4993539;28;20043;-67
2022/04/20 15:26:24;;;;;;;3.97;2.17;;;;;;;;;;4993227;28;20133;-67
2022/04/20 15:28:53;;;;;;;4.85;2.30;;;;;;;;;;5010854;28;20041;-68
2022/04/20 15:31:19;;;;;;;5.38;2.50;;;;;;;;;;5007872;28;20049;-69
2022/04/20 15:33:46;;;;;;;5.30;2.72;;;;;;;;;;5012609;28;20049;-69